sensor_id;sensor_type;location;lat;lon;timestamp;P1;durP1;ratioP1;P2;durP2;ratioP2
25439;SDS011;13365;52.208;5.488;2023-01-28T00:02:08;7.05;;;3.70;;
25439;SDS011;13365;52.208;5.488;2023-01-28T00:04:37;5.00;;;2.35;;
25439;SDS011;13365;52.208;5.488;2023-01-28T00:07:02;5.57;;;2.88;;
25439;SDS011;13365;52.208;5.488;2023-01-28T00:09:28;4.82;;;2.88;;
25439;SDS011;13365;52.208;5.488;2023-01-28T00:11:53;7.70;;;3.25;;
25439;SDS011;13365;52.208;5.488;2023-01-28T00:14:19;5.88;;;3.10;;
25439;SDS011;13365;52.208;5.488;2023-01-28T00:16:44;5.78;;;2.50;;
25439;SDS011;13365;52.208;5.488;2023-01-28T00:19:10;6.70;;;2.63;;
25439;SDS011;13365;52.208;5.488;2023-01-28T00:21:36;4.35;;;2.88;;
25439;SDS011;13365;52.208;5.488;2023-01-28T00:24:01;5.65;;;2.95;;
25439;SDS011;13365;52.208;5.488;2023-01-28T00:26:27;8.00;;;4.03;;
25439;SDS011;13365;52.208;5.488;2023-01-28T00:28:53;7.28;;;2.88;;
25439;SDS011;13365;52.208;5.488;2023-01-28T00:31:20;8.18;;;2.67;;
25439;SDS011;13365;52.208;5.488;2023-01-28T00:33:47;4.63;;;2.45;;
25439;SDS011;13365;52.208;5.488;2023-01-28T00:36:13;6.60;;;3.10;;
25439;SDS011;13365;52.208;5.488;2023-01-28T00:38:40;4.93;;;2.83;;
25439;SDS011;13365;52.208;5.488;2023-01-28T00:41:10;5.25;;;2.88;;
25439;SDS011;13365;52.208;5.488;2023-01-28T00:43:40;5.78;;;2.55;;
25439;SDS011;13365;52.208;5.488;2023-01-28T00:46:07;6.45;;;3.15;;
25439;SDS011;13365;52.208;5.488;2023-01-28T00:48:34;4.55;;;2.90;;
25439;SDS011;13365;52.208;5.488;2023-01-28T00:51:00;7.75;;;3.83;;
25439;SDS011;13365;52.208;5.488;2023-01-28T00:53:25;6.63;;;3.38;;
25439;SDS011;13365;52.208;5.488;2023-01-28T00:55:51;5.65;;;3.30;;
25439;SDS011;13365;52.208;5.488;2023-01-28T00:58:17;5.70;;;2.88;;
25439;SDS011;13365;52.208;5.488;2023-01-28T01:00:43;4.65;;;3.03;;
25439;SDS011;13365;52.208;5.488;2023-01-28T01:03:09;4.95;;;2.80;;
25439;SDS011;13365;52.208;5.488;2023-01-28T01:05:35;6.18;;;1.90;;
25439;SDS011;13365;52.208;5.488;2023-01-28T01:08:00;4.38;;;2.15;;
25439;SDS011;13365;52.208;5.488;2023-01-28T01:10:26;5.32;;;2.45;;
25439;SDS011;13365;52.208;5.488;2023-01-28T01:12:52;5.60;;;2.53;;
25439;SDS011;13365;52.208;5.488;2023-01-28T01:15:18;13.48;;;3.38;;
25439;SDS011;13365;52.208;5.488;2023-01-28T01:17:45;6.60;;;2.80;;
25439;SDS011;13365;52.208;5.488;2023-01-28T01:20:16;6.68;;;2.83;;
25439;SDS011;13365;52.208;5.488;2023-01-28T01:22:44;3.97;;;2.42;;
25439;SDS011;13365;52.208;5.488;2023-01-28T01:25:11;9.13;;;4.28;;
25439;SDS011;13365;52.208;5.488;2023-01-28T01:27:37;7.28;;;3.03;;
25439;SDS011;13365;52.208;5.488;2023-01-28T01:30:03;5.50;;;2.67;;
25439;SDS011;13365;52.208;5.488;2023-01-28T01:32:30;6.80;;;3.10;;
25439;SDS011;13365;52.208;5.488;2023-01-28T01:34:56;3.55;;;2.28;;
25439;SDS011;13365;52.208;5.488;2023-01-28T01:37:22;8.82;;;2.60;;
25439;SDS011;13365;52.208;5.488;2023-01-28T01:39:48;6.55;;;3.35;;
25439;SDS011;13365;52.208;5.488;2023-01-28T01:42:13;5.93;;;2.33;;
25439;SDS011;13365;52.208;5.488;2023-01-28T01:50:35;5.63;;;3.33;;
25439;SDS011;13365;52.208;5.488;2023-01-28T01:53:08;4.07;;;2.28;;
25439;SDS011;13365;52.208;5.488;2023-01-28T01:55:38;5.50;;;2.75;;
25439;SDS011;13365;52.208;5.488;2023-01-28T01:58:07;8.35;;;3.50;;
25439;SDS011;13365;52.208;5.488;2023-01-28T02:00:39;6.38;;;2.78;;
25439;SDS011;13365;52.208;5.488;2023-01-28T02:03:06;6.00;;;2.67;;
25439;SDS011;13365;52.208;5.488;2023-01-28T02:05:35;5.88;;;2.70;;
25439;SDS011;13365;52.208;5.488;2023-01-28T02:08:02;6.00;;;2.85;;
25439;SDS011;13365;52.208;5.488;2023-01-28T02:10:53;4.60;;;2.30;;
25439;SDS011;13365;52.208;5.488;2023-01-28T02:13:25;6.78;;;3.45;;
25439;SDS011;13365;52.208;5.488;2023-01-28T02:15:54;4.68;;;1.85;;
25439;SDS011;13365;52.208;5.488;2023-01-28T02:18:27;6.43;;;2.38;;
25439;SDS011;13365;52.208;5.488;2023-01-28T02:29:18;5.85;;;2.63;;
25439;SDS011;13365;52.208;5.488;2023-01-28T02:34:51;7.13;;;2.38;;
25439;SDS011;13365;52.208;5.488;2023-01-28T02:40:27;7.10;;;2.80;;
25439;SDS011;13365;52.208;5.488;2023-01-28T02:42:55;7.53;;;3.00;;
25439;SDS011;13365;52.208;5.488;2023-01-28T02:45:22;4.25;;;2.63;;
25439;SDS011;13365;52.208;5.488;2023-01-28T02:48:10;4.22;;;2.40;;
25439;SDS011;13365;52.208;5.488;2023-01-28T02:50:42;5.30;;;2.05;;
25439;SDS011;13365;52.208;5.488;2023-01-28T02:56:11;4.18;;;2.72;;
25439;SDS011;13365;52.208;5.488;2023-01-28T02:58:53;5.45;;;2.33;;
25439;SDS011;13365;52.208;5.488;2023-01-28T03:01:45;3.90;;;1.90;;
25439;SDS011;13365;52.208;5.488;2023-01-28T03:04:23;7.28;;;2.78;;
25439;SDS011;13365;52.208;5.488;2023-01-28T03:06:54;6.55;;;2.83;;
25439;SDS011;13365;52.208;5.488;2023-01-28T03:09:24;7.45;;;3.25;;
25439;SDS011;13365;52.208;5.488;2023-01-28T03:11:55;6.05;;;2.50;;
25439;SDS011;13365;52.208;5.488;2023-01-28T03:14:55;5.97;;;2.95;;
25439;SDS011;13365;52.208;5.488;2023-01-28T03:20:39;4.45;;;2.17;;
25439;SDS011;13365;52.208;5.488;2023-01-28T03:23:30;4.95;;;2.63;;
25439;SDS011;13365;52.208;5.488;2023-01-28T03:26:20;4.57;;;2.15;;
25439;SDS011;13365;52.208;5.488;2023-01-28T03:29:09;5.70;;;2.45;;
25439;SDS011;13365;52.208;5.488;2023-01-28T03:31:57;4.13;;;2.30;;
25439;SDS011;13365;52.208;5.488;2023-01-28T03:34:42;3.53;;;2.08;;
25439;SDS011;13365;52.208;5.488;2023-01-28T03:37:28;5.88;;;2.65;;
25439;SDS011;13365;52.208;5.488;2023-01-28T03:39:55;5.15;;;2.42;;
25439;SDS011;13365;52.208;5.488;2023-01-28T03:42:26;7.07;;;3.30;;
25439;SDS011;13365;52.208;5.488;2023-01-28T03:44:51;4.55;;;2.78;;
25439;SDS011;13365;52.208;5.488;2023-01-28T03:47:18;5.03;;;2.90;;
25439;SDS011;13365;52.208;5.488;2023-01-28T03:49:45;4.65;;;2.55;;
25439;SDS011;13365;52.208;5.488;2023-01-28T03:52:22;3.97;;;2.10;;
25439;SDS011;13365;52.208;5.488;2023-01-28T03:54:49;3.70;;;2.35;;
25439;SDS011;13365;52.208;5.488;2023-01-28T03:57:17;5.68;;;2.40;;
25439;SDS011;13365;52.208;5.488;2023-01-28T03:59:45;5.50;;;2.55;;
25439;SDS011;13365;52.208;5.488;2023-01-28T04:02:13;5.80;;;2.65;;
25439;SDS011;13365;52.208;5.488;2023-01-28T04:04:40;4.63;;;2.47;;
25439;SDS011;13365;52.208;5.488;2023-01-28T04:07:06;4.13;;;2.03;;
25439;SDS011;13365;52.208;5.488;2023-01-28T04:09:34;4.43;;;2.38;;
25439;SDS011;13365;52.208;5.488;2023-01-28T04:12:03;4.68;;;2.85;;
25439;SDS011;13365;52.208;5.488;2023-01-28T04:14:29;5.22;;;3.35;;
25439;SDS011;13365;52.208;5.488;2023-01-28T04:16:55;5.50;;;2.92;;
25439;SDS011;13365;52.208;5.488;2023-01-28T04:19:20;4.82;;;1.98;;
25439;SDS011;13365;52.208;5.488;2023-01-28T04:21:46;4.32;;;2.17;;
25439;SDS011;13365;52.208;5.488;2023-01-28T04:24:13;3.05;;;1.73;;
25439;SDS011;13365;52.208;5.488;2023-01-28T04:26:39;6.32;;;3.25;;
25439;SDS011;13365;52.208;5.488;2023-01-28T04:29:05;5.80;;;2.80;;
25439;SDS011;13365;52.208;5.488;2023-01-28T04:31:31;8.50;;;3.10;;
25439;SDS011;13365;52.208;5.488;2023-01-28T04:33:57;3.90;;;2.33;;
25439;SDS011;13365;52.208;5.488;2023-01-28T04:36:23;5.95;;;1.67;;
25439;SDS011;13365;52.208;5.488;2023-01-28T04:38:49;3.22;;;1.92;;
25439;SDS011;13365;52.208;5.488;2023-01-28T04:41:15;8.00;;;3.08;;
25439;SDS011;13365;52.208;5.488;2023-01-28T04:43:40;4.50;;;2.17;;
25439;SDS011;13365;52.208;5.488;2023-01-28T04:46:06;5.78;;;2.47;;
25439;SDS011;13365;52.208;5.488;2023-01-28T04:48:32;4.88;;;2.10;;
25439;SDS011;13365;52.208;5.488;2023-01-28T04:50:59;6.70;;;3.28;;
25439;SDS011;13365;52.208;5.488;2023-01-28T04:53:24;4.78;;;2.58;;
25439;SDS011;13365;52.208;5.488;2023-01-28T04:55:50;6.85;;;3.67;;
25439;SDS011;13365;52.208;5.488;2023-01-28T04:58:16;5.72;;;2.65;;
25439;SDS011;13365;52.208;5.488;2023-01-28T05:00:41;6.07;;;2.67;;
25439;SDS011;13365;52.208;5.488;2023-01-28T05:03:07;6.05;;;2.40;;
25439;SDS011;13365;52.208;5.488;2023-01-28T05:05:32;5.80;;;2.25;;
25439;SDS011;13365;52.208;5.488;2023-01-28T05:07:58;5.60;;;2.85;;
25439;SDS011;13365;52.208;5.488;2023-01-28T05:10:24;8.27;;;3.35;;
25439;SDS011;13365;52.208;5.488;2023-01-28T05:12:51;6.55;;;2.60;;
25439;SDS011;13365;52.208;5.488;2023-01-28T05:15:16;3.40;;;1.67;;
25439;SDS011;13365;52.208;5.488;2023-01-28T05:17:43;6.32;;;3.35;;
25439;SDS011;13365;52.208;5.488;2023-01-28T05:20:10;6.03;;;2.65;;
25439;SDS011;13365;52.208;5.488;2023-01-28T05:22:36;5.47;;;2.63;;
25439;SDS011;13365;52.208;5.488;2023-01-28T05:25:02;5.35;;;2.45;;
25439;SDS011;13365;52.208;5.488;2023-01-28T05:27:28;3.78;;;2.08;;
25439;SDS011;13365;52.208;5.488;2023-01-28T05:29:54;5.75;;;2.85;;
25439;SDS011;13365;52.208;5.488;2023-01-28T05:32:20;3.83;;;2.28;;
25439;SDS011;13365;52.208;5.488;2023-01-28T05:34:45;8.55;;;2.97;;
25439;SDS011;13365;52.208;5.488;2023-01-28T05:37:11;5.80;;;2.15;;
25439;SDS011;13365;52.208;5.488;2023-01-28T05:39:37;8.20;;;3.30;;
25439;SDS011;13365;52.208;5.488;2023-01-28T05:42:02;7.25;;;3.42;;
25439;SDS011;13365;52.208;5.488;2023-01-28T05:44:28;6.25;;;3.90;;
25439;SDS011;13365;52.208;5.488;2023-01-28T05:46:53;5.20;;;2.47;;
25439;SDS011;13365;52.208;5.488;2023-01-28T05:49:19;6.88;;;3.53;;
25439;SDS011;13365;52.208;5.488;2023-01-28T05:51:44;6.82;;;2.80;;
25439;SDS011;13365;52.208;5.488;2023-01-28T05:54:12;8.48;;;3.10;;
25439;SDS011;13365;52.208;5.488;2023-01-28T05:56:37;11.20;;;3.28;;
25439;SDS011;13365;52.208;5.488;2023-01-28T05:59:04;5.88;;;2.95;;
25439;SDS011;13365;52.208;5.488;2023-01-28T06:01:30;5.88;;;2.72;;
25439;SDS011;13365;52.208;5.488;2023-01-28T06:03:56;5.50;;;3.05;;
25439;SDS011;13365;52.208;5.488;2023-01-28T06:06:21;5.90;;;2.80;;
25439;SDS011;13365;52.208;5.488;2023-01-28T06:08:47;7.28;;;3.42;;
25439;SDS011;13365;52.208;5.488;2023-01-28T06:11:12;5.38;;;2.38;;
25439;SDS011;13365;52.208;5.488;2023-01-28T06:13:38;6.07;;;3.05;;
25439;SDS011;13365;52.208;5.488;2023-01-28T06:16:05;6.72;;;3.00;;
25439;SDS011;13365;52.208;5.488;2023-01-28T06:18:31;6.82;;;2.83;;
25439;SDS011;13365;52.208;5.488;2023-01-28T06:20:57;5.20;;;2.13;;
25439;SDS011;13365;52.208;5.488;2023-01-28T06:23:23;6.72;;;2.90;;
25439;SDS011;13365;52.208;5.488;2023-01-28T06:25:52;7.65;;;3.47;;
25439;SDS011;13365;52.208;5.488;2023-01-28T06:28:19;6.82;;;2.50;;
25439;SDS011;13365;52.208;5.488;2023-01-28T06:30:47;7.85;;;3.45;;
25439;SDS011;13365;52.208;5.488;2023-01-28T06:33:13;7.88;;;3.40;;
25439;SDS011;13365;52.208;5.488;2023-01-28T06:35:39;6.13;;;2.90;;
25439;SDS011;13365;52.208;5.488;2023-01-28T06:38:05;6.78;;;2.95;;
25439;SDS011;13365;52.208;5.488;2023-01-28T06:40:30;8.57;;;3.60;;
25439;SDS011;13365;52.208;5.488;2023-01-28T06:42:56;7.25;;;3.00;;
25439;SDS011;13365;52.208;5.488;2023-01-28T06:45:21;5.70;;;3.05;;
25439;SDS011;13365;52.208;5.488;2023-01-28T06:47:47;8.48;;;3.13;;
25439;SDS011;13365;52.208;5.488;2023-01-28T06:50:12;5.95;;;3.00;;
25439;SDS011;13365;52.208;5.488;2023-01-28T06:52:38;7.00;;;2.80;;
25439;SDS011;13365;52.208;5.488;2023-01-28T06:55:05;7.10;;;2.90;;
25439;SDS011;13365;52.208;5.488;2023-01-28T06:57:31;6.28;;;3.25;;
25439;SDS011;13365;52.208;5.488;2023-01-28T06:59:57;6.60;;;3.17;;
25439;SDS011;13365;52.208;5.488;2023-01-28T07:02:22;4.35;;;2.45;;
25439;SDS011;13365;52.208;5.488;2023-01-28T07:04:48;7.35;;;2.75;;
25439;SDS011;13365;52.208;5.488;2023-01-28T07:07:13;6.85;;;3.03;;
25439;SDS011;13365;52.208;5.488;2023-01-28T07:09:39;9.07;;;4.20;;
25439;SDS011;13365;52.208;5.488;2023-01-28T07:12:04;8.70;;;4.10;;
25439;SDS011;13365;52.208;5.488;2023-01-28T07:14:30;21.75;;;4.13;;
25439;SDS011;13365;52.208;5.488;2023-01-28T07:16:56;30.60;;;4.78;;
25439;SDS011;13365;52.208;5.488;2023-01-28T07:19:21;18.88;;;3.75;;
25439;SDS011;13365;52.208;5.488;2023-01-28T07:21:47;16.67;;;2.92;;
25439;SDS011;13365;52.208;5.488;2023-01-28T07:24:12;7.22;;;3.33;;
25439;SDS011;13365;52.208;5.488;2023-01-28T07:26:38;8.45;;;3.35;;
25439;SDS011;13365;52.208;5.488;2023-01-28T07:29:03;42.92;;;6.45;;
25439;SDS011;13365;52.208;5.488;2023-01-28T07:31:29;7.72;;;3.33;;
25439;SDS011;13365;52.208;5.488;2023-01-28T07:33:55;6.63;;;3.17;;
25439;SDS011;13365;52.208;5.488;2023-01-28T07:36:20;7.85;;;3.67;;
25439;SDS011;13365;52.208;5.488;2023-01-28T07:38:46;6.50;;;3.22;;
25439;SDS011;13365;52.208;5.488;2023-01-28T07:41:11;7.60;;;3.30;;
25439;SDS011;13365;52.208;5.488;2023-01-28T07:43:37;7.07;;;3.10;;
25439;SDS011;13365;52.208;5.488;2023-01-28T07:46:02;4.78;;;2.63;;
25439;SDS011;13365;52.208;5.488;2023-01-28T07:48:28;6.38;;;3.03;;
25439;SDS011;13365;52.208;5.488;2023-01-28T07:50:56;8.40;;;2.70;;
25439;SDS011;13365;52.208;5.488;2023-01-28T07:53:26;5.93;;;3.28;;
25439;SDS011;13365;52.208;5.488;2023-01-28T07:55:56;6.47;;;3.17;;
25439;SDS011;13365;52.208;5.488;2023-01-28T07:58:23;6.68;;;3.47;;
25439;SDS011;13365;52.208;5.488;2023-01-28T08:00:49;7.18;;;3.17;;
25439;SDS011;13365;52.208;5.488;2023-01-28T08:03:14;6.82;;;2.60;;
25439;SDS011;13365;52.208;5.488;2023-01-28T08:05:41;10.55;;;3.25;;
25439;SDS011;13365;52.208;5.488;2023-01-28T08:08:12;12.90;;;2.92;;
25439;SDS011;13365;52.208;5.488;2023-01-28T08:10:38;6.72;;;2.85;;
25439;SDS011;13365;52.208;5.488;2023-01-28T08:13:04;5.35;;;2.85;;
25439;SDS011;13365;52.208;5.488;2023-01-28T08:15:30;5.10;;;2.63;;
25439;SDS011;13365;52.208;5.488;2023-01-28T08:17:56;5.32;;;3.30;;
25439;SDS011;13365;52.208;5.488;2023-01-28T08:20:23;10.90;;;4.63;;
25439;SDS011;13365;52.208;5.488;2023-01-28T08:22:50;7.75;;;4.38;;
25439;SDS011;13365;52.208;5.488;2023-01-28T08:25:15;9.68;;;4.03;;
25439;SDS011;13365;52.208;5.488;2023-01-28T08:27:41;7.40;;;3.65;;
25439;SDS011;13365;52.208;5.488;2023-01-28T08:30:07;5.88;;;3.05;;
25439;SDS011;13365;52.208;5.488;2023-01-28T08:32:34;4.85;;;2.42;;
25439;SDS011;13365;52.208;5.488;2023-01-28T08:35:00;7.70;;;3.17;;
25439;SDS011;13365;52.208;5.488;2023-01-28T08:37:26;6.47;;;3.05;;
25439;SDS011;13365;52.208;5.488;2023-01-28T08:39:51;5.47;;;2.17;;
25439;SDS011;13365;52.208;5.488;2023-01-28T08:42:17;6.30;;;3.00;;
25439;SDS011;13365;52.208;5.488;2023-01-28T08:44:42;5.18;;;2.53;;
25439;SDS011;13365;52.208;5.488;2023-01-28T08:47:08;6.65;;;2.67;;
25439;SDS011;13365;52.208;5.488;2023-01-28T08:49:33;7.22;;;3.65;;
25439;SDS011;13365;52.208;5.488;2023-01-28T08:51:59;7.25;;;3.40;;
25439;SDS011;13365;52.208;5.488;2023-01-28T08:54:24;6.50;;;3.33;;
25439;SDS011;13365;52.208;5.488;2023-01-28T08:56:50;5.45;;;2.58;;
25439;SDS011;13365;52.208;5.488;2023-01-28T08:59:16;7.10;;;3.33;;
25439;SDS011;13365;52.208;5.488;2023-01-28T09:01:42;7.63;;;3.38;;
25439;SDS011;13365;52.208;5.488;2023-01-28T09:04:07;5.82;;;2.70;;
25439;SDS011;13365;52.208;5.488;2023-01-28T09:06:33;7.03;;;3.13;;
25439;SDS011;13365;52.208;5.488;2023-01-28T09:08:59;5.82;;;2.90;;
25439;SDS011;13365;52.208;5.488;2023-01-28T09:11:25;6.03;;;2.80;;
25439;SDS011;13365;52.208;5.488;2023-01-28T09:13:52;8.52;;;3.15;;
25439;SDS011;13365;52.208;5.488;2023-01-28T09:16:17;10.13;;;2.58;;
25439;SDS011;13365;52.208;5.488;2023-01-28T09:18:43;5.65;;;3.08;;
25439;SDS011;13365;52.208;5.488;2023-01-28T09:21:08;8.82;;;3.22;;
25439;SDS011;13365;52.208;5.488;2023-01-28T09:23:34;5.40;;;2.88;;
25439;SDS011;13365;52.208;5.488;2023-01-28T09:26:04;6.45;;;3.25;;
25439;SDS011;13365;52.208;5.488;2023-01-28T09:28:30;5.38;;;2.42;;
25439;SDS011;13365;52.208;5.488;2023-01-28T09:31:04;5.13;;;2.75;;
25439;SDS011;13365;52.208;5.488;2023-01-28T09:33:31;5.80;;;2.78;;
25439;SDS011;13365;52.208;5.488;2023-01-28T09:36:00;5.75;;;3.00;;
25439;SDS011;13365;52.208;5.488;2023-01-28T09:38:27;4.18;;;2.00;;
25439;SDS011;13365;52.208;5.488;2023-01-28T09:40:54;6.40;;;2.75;;
25439;SDS011;13365;52.208;5.488;2023-01-28T09:46:18;6.10;;;3.15;;
25439;SDS011;13365;52.208;5.488;2023-01-28T09:48:51;5.05;;;2.45;;
25439;SDS011;13365;52.208;5.488;2023-01-28T09:51:33;4.25;;;2.28;;
25439;SDS011;13365;52.208;5.488;2023-01-28T09:56:50;6.80;;;3.17;;
25439;SDS011;13365;52.208;5.488;2023-01-28T09:59:21;7.00;;;2.92;;
25439;SDS011;13365;52.208;5.488;2023-01-28T10:01:58;7.50;;;3.25;;
25439;SDS011;13365;52.208;5.488;2023-01-28T10:04:58;6.13;;;2.67;;
25439;SDS011;13365;52.208;5.488;2023-01-28T10:10:26;6.50;;;3.42;;
25439;SDS011;13365;52.208;5.488;2023-01-28T10:18:09;7.53;;;3.03;;
25439;SDS011;13365;52.208;5.488;2023-01-28T10:20:40;4.70;;;2.10;;
25439;SDS011;13365;52.208;5.488;2023-01-28T10:23:30;6.22;;;3.20;;
25439;SDS011;13365;52.208;5.488;2023-01-28T10:26:17;5.07;;;2.65;;
25439;SDS011;13365;52.208;5.488;2023-01-28T10:28:53;4.70;;;2.50;;
25439;SDS011;13365;52.208;5.488;2023-01-28T10:31:22;4.55;;;2.60;;
25439;SDS011;13365;52.208;5.488;2023-01-28T10:33:51;6.75;;;3.33;;
25439;SDS011;13365;52.208;5.488;2023-01-28T10:36:16;5.70;;;2.53;;
25439;SDS011;13365;52.208;5.488;2023-01-28T10:38:43;8.45;;;2.88;;
25439;SDS011;13365;52.208;5.488;2023-01-28T10:41:09;10.63;;;3.13;;
25439;SDS011;13365;52.208;5.488;2023-01-28T10:43:37;6.70;;;2.42;;
25439;SDS011;13365;52.208;5.488;2023-01-28T10:49:40;7.53;;;2.80;;
25439;SDS011;13365;52.208;5.488;2023-01-28T10:51:35;7.43;;;3.10;;
25439;SDS011;13365;52.208;5.488;2023-01-28T10:54:03;7.93;;;2.58;;
25439;SDS011;13365;52.208;5.488;2023-01-28T10:56:46;4.28;;;2.65;;
25439;SDS011;13365;52.208;5.488;2023-01-28T10:59:18;5.30;;;2.45;;
25439;SDS011;13365;52.208;5.488;2023-01-28T11:01:48;4.63;;;2.35;;
25439;SDS011;13365;52.208;5.488;2023-01-28T11:04:17;5.57;;;3.00;;
25439;SDS011;13365;52.208;5.488;2023-01-28T11:06:59;5.57;;;2.75;;
25439;SDS011;13365;52.208;5.488;2023-01-28T11:09:30;5.03;;;2.50;;
25439;SDS011;13365;52.208;5.488;2023-01-28T11:12:09;6.32;;;2.30;;
25439;SDS011;13365;52.208;5.488;2023-01-28T11:14:51;7.72;;;2.53;;
25439;SDS011;13365;52.208;5.488;2023-01-28T11:17:21;5.55;;;2.17;;
25439;SDS011;13365;52.208;5.488;2023-01-28T11:19:50;5.50;;;2.10;;
25439;SDS011;13365;52.208;5.488;2023-01-28T11:22:20;3.05;;;1.80;;
25439;SDS011;13365;52.208;5.488;2023-01-28T11:24:47;5.13;;;2.22;;
25439;SDS011;13365;52.208;5.488;2023-01-28T11:27:16;5.07;;;2.55;;
25439;SDS011;13365;52.208;5.488;2023-01-28T11:29:46;4.70;;;2.08;;
25439;SDS011;13365;52.208;5.488;2023-01-28T11:32:18;5.18;;;2.60;;
25439;SDS011;13365;52.208;5.488;2023-01-28T11:34:49;4.00;;;2.00;;
25439;SDS011;13365;52.208;5.488;2023-01-28T11:37:18;3.53;;;1.80;;
25439;SDS011;13365;52.208;5.488;2023-01-28T11:39:46;3.25;;;1.80;;
25439;SDS011;13365;52.208;5.488;2023-01-28T11:42:15;3.63;;;2.10;;
25439;SDS011;13365;52.208;5.488;2023-01-28T11:44:43;3.25;;;2.13;;
25439;SDS011;13365;52.208;5.488;2023-01-28T11:47:21;3.80;;;1.90;;
25439;SDS011;13365;52.208;5.488;2023-01-28T12:01:13;3.28;;;1.90;;
25439;SDS011;13365;52.208;5.488;2023-01-28T12:06:38;8.43;;;2.50;;
25439;SDS011;13365;52.208;5.488;2023-01-28T12:09:56;5.47;;;2.25;;
25439;SDS011;13365;52.208;5.488;2023-01-28T12:21:13;4.80;;;2.05;;
25439;SDS011;13365;52.208;5.488;2023-01-28T12:30:00;4.78;;;2.20;;
25439;SDS011;13365;52.208;5.488;2023-01-28T12:32:48;3.13;;;1.35;;
25439;SDS011;13365;52.208;5.488;2023-01-28T12:35:46;7.00;;;2.53;;
25439;SDS011;13365;52.208;5.488;2023-01-28T12:41:13;3.80;;;1.30;;
25439;SDS011;13365;52.208;5.488;2023-01-28T12:43:44;4.88;;;2.08;;
25439;SDS011;13365;52.208;5.488;2023-01-28T12:57:15;4.97;;;1.80;;
25439;SDS011;13365;52.208;5.488;2023-01-28T12:59:50;3.75;;;1.10;;
25439;SDS011;13365;52.208;5.488;2023-01-28T13:02:38;3.13;;;1.50;;
25439;SDS011;13365;52.208;5.488;2023-01-28T13:07:50;3.93;;;2.10;;
25439;SDS011;13365;52.208;5.488;2023-01-28T13:10:39;3.42;;;1.83;;
25439;SDS011;13365;52.208;5.488;2023-01-28T13:13:08;7.35;;;2.28;;
25439;SDS011;13365;52.208;5.488;2023-01-28T13:15:41;4.97;;;1.88;;
25439;SDS011;13365;52.208;5.488;2023-01-28T13:18:29;4.32;;;1.77;;
25439;SDS011;13365;52.208;5.488;2023-01-28T13:20:53;2.92;;;1.52;;
25439;SDS011;13365;52.208;5.488;2023-01-28T13:23:35;4.47;;;2.30;;
25439;SDS011;13365;52.208;5.488;2023-01-28T13:28:44;2.95;;;1.38;;
25439;SDS011;13365;52.208;5.488;2023-01-28T13:31:15;2.33;;;0.95;;
25439;SDS011;13365;52.208;5.488;2023-01-28T13:33:44;4.18;;;1.48;;
25439;SDS011;13365;52.208;5.488;2023-01-28T13:36:44;5.93;;;1.52;;
25439;SDS011;13365;52.208;5.488;2023-01-28T13:42:45;2.90;;;1.17;;
25439;SDS011;13365;52.208;5.488;2023-01-28T13:44:52;6.43;;;2.17;;
25439;SDS011;13365;52.208;5.488;2023-01-28T13:47:52;7.35;;;1.13;;
25439;SDS011;13365;52.208;5.488;2023-01-28T13:50:17;2.50;;;1.38;;
25439;SDS011;13365;52.208;5.488;2023-01-28T13:55:57;14.80;;;1.92;;
25439;SDS011;13365;52.208;5.488;2023-01-28T14:09:32;3.45;;;1.65;;
25439;SDS011;13365;52.208;5.488;2023-01-28T14:17:55;3.30;;;1.80;;
25439;SDS011;13365;52.208;5.488;2023-01-28T14:20:24;3.13;;;1.40;;
25439;SDS011;13365;52.208;5.488;2023-01-28T14:22:55;3.55;;;1.70;;
25439;SDS011;13365;52.208;5.488;2023-01-28T14:25:36;2.85;;;1.35;;
25439;SDS011;13365;52.208;5.488;2023-01-28T14:31:10;3.78;;;1.58;;
25439;SDS011;13365;52.208;5.488;2023-01-28T14:33:44;3.40;;;1.60;;
25439;SDS011;13365;52.208;5.488;2023-01-28T14:36:11;3.45;;;1.65;;
25439;SDS011;13365;52.208;5.488;2023-01-28T14:38:38;3.25;;;1.60;;
25439;SDS011;13365;52.208;5.488;2023-01-28T14:41:06;2.50;;;1.45;;
25439;SDS011;13365;52.208;5.488;2023-01-28T14:43:32;2.65;;;1.20;;
25439;SDS011;13365;52.208;5.488;2023-01-28T14:54:08;4.78;;;1.35;;
25439;SDS011;13365;52.208;5.488;2023-01-28T14:56:50;4.70;;;2.17;;
25439;SDS011;13365;52.208;5.488;2023-01-28T15:02:21;4.00;;;1.10;;
25439;SDS011;13365;52.208;5.488;2023-01-28T15:04:48;1.63;;;0.57;;
25439;SDS011;13365;52.208;5.488;2023-01-28T15:07:16;3.58;;;1.13;;
25439;SDS011;13365;52.208;5.488;2023-01-28T15:09:44;2.92;;;0.93;;
25439;SDS011;13365;52.208;5.488;2023-01-28T15:12:10;4.85;;;1.42;;
25439;SDS011;13365;52.208;5.488;2023-01-28T15:14:37;1.30;;;0.70;;
25439;SDS011;13365;52.208;5.488;2023-01-28T15:17:04;2.03;;;0.93;;
25439;SDS011;13365;52.208;5.488;2023-01-28T15:19:33;1.98;;;1.25;;
25439;SDS011;13365;52.208;5.488;2023-01-28T15:22:02;5.57;;;1.02;;
25439;SDS011;13365;52.208;5.488;2023-01-28T15:24:30;2.13;;;0.77;;
25439;SDS011;13365;52.208;5.488;2023-01-28T15:26:58;1.70;;;0.73;;
25439;SDS011;13365;52.208;5.488;2023-01-28T15:29:31;2.85;;;1.40;;
25439;SDS011;13365;52.208;5.488;2023-01-28T15:31:59;4.13;;;1.85;;
25439;SDS011;13365;52.208;5.488;2023-01-28T15:34:26;2.58;;;0.70;;
25439;SDS011;13365;52.208;5.488;2023-01-28T15:36:55;1.52;;;0.88;;
25439;SDS011;13365;52.208;5.488;2023-01-28T15:39:22;1.88;;;0.88;;
25439;SDS011;13365;52.208;5.488;2023-01-28T15:44:32;2.40;;;0.95;;
25439;SDS011;13365;52.208;5.488;2023-01-28T15:46:59;3.55;;;0.85;;
25439;SDS011;13365;52.208;5.488;2023-01-28T15:49:31;4.25;;;1.00;;
25439;SDS011;13365;52.208;5.488;2023-01-28T15:52:00;4.30;;;0.82;;
25439;SDS011;13365;52.208;5.488;2023-01-28T15:54:26;4.72;;;0.88;;
25439;SDS011;13365;52.208;5.488;2023-01-28T15:56:54;2.67;;;0.93;;
25439;SDS011;13365;52.208;5.488;2023-01-28T15:59:27;2.42;;;0.70;;
25439;SDS011;13365;52.208;5.488;2023-01-28T16:02:40;5.53;;;0.90;;
25439;SDS011;13365;52.208;5.488;2023-01-28T16:07:26;0.95;;;0.50;;
25439;SDS011;13365;52.208;5.488;2023-01-28T16:09:54;1.50;;;0.90;;
25439;SDS011;13365;52.208;5.488;2023-01-28T16:12:22;1.85;;;1.00;;
25439;SDS011;13365;52.208;5.488;2023-01-28T16:14:52;2.28;;;1.10;;
25439;SDS011;13365;52.208;5.488;2023-01-28T16:17:21;4.07;;;1.27;;
25439;SDS011;13365;52.208;5.488;2023-01-28T16:19:56;4.43;;;1.58;;
25439;SDS011;13365;52.208;5.488;2023-01-28T16:22:35;5.25;;;1.63;;
25439;SDS011;13365;52.208;5.488;2023-01-28T16:25:02;4.72;;;1.30;;
25439;SDS011;13365;52.208;5.488;2023-01-28T16:27:49;6.45;;;1.10;;
25439;SDS011;13365;52.208;5.488;2023-01-28T16:30:14;5.18;;;2.05;;
25439;SDS011;13365;52.208;5.488;2023-01-28T16:32:41;3.75;;;1.13;;
25439;SDS011;13365;52.208;5.488;2023-01-28T16:35:14;5.30;;;1.95;;
25439;SDS011;13365;52.208;5.488;2023-01-28T16:37:44;3.83;;;1.55;;
25439;SDS011;13365;52.208;5.488;2023-01-28T16:40:10;6.18;;;2.20;;
25439;SDS011;13365;52.208;5.488;2023-01-28T16:42:37;2.58;;;1.58;;
25439;SDS011;13365;52.208;5.488;2023-01-28T16:45:03;9.07;;;2.58;;
25439;SDS011;13365;52.208;5.488;2023-01-28T16:47:29;4.47;;;2.13;;
25439;SDS011;13365;52.208;5.488;2023-01-28T16:49:55;11.48;;;2.30;;
25439;SDS011;13365;52.208;5.488;2023-01-28T16:52:21;8.05;;;2.67;;
25439;SDS011;13365;52.208;5.488;2023-01-28T16:54:46;18.55;;;2.75;;
25439;SDS011;13365;52.208;5.488;2023-01-28T16:57:16;5.78;;;3.13;;
25439;SDS011;13365;52.208;5.488;2023-01-28T16:59:43;5.20;;;2.72;;
25439;SDS011;13365;52.208;5.488;2023-01-28T17:02:10;4.32;;;2.45;;
25439;SDS011;13365;52.208;5.488;2023-01-28T17:04:37;9.90;;;2.60;;
25439;SDS011;13365;52.208;5.488;2023-01-28T17:07:02;9.27;;;3.15;;
25439;SDS011;13365;52.208;5.488;2023-01-28T17:09:28;7.43;;;1.98;;
25439;SDS011;13365;52.208;5.488;2023-01-28T17:11:54;6.63;;;2.20;;
25439;SDS011;13365;52.208;5.488;2023-01-28T17:14:20;5.70;;;2.40;;
25439;SDS011;13365;52.208;5.488;2023-01-28T17:16:46;5.20;;;2.25;;